Time;durP1;ratioP1;P1;durP2;ratioP2;P2;SDS_P1;SDS_P2;PMS_P1;PMS_P2;Temp;Humidity;BMP_temperature;BMP_pressure;BME280_temperature;BME280_humidity;BME280_pressure;Samples;Min_cycle;Max_cycle;Signal;HPM_P1;HPM_P2
2022/02/13 00:01:35;;;;;;;12.07;7.20;;;-1.20;99.90;;;;;;5053021;28;20104;-74
2022/02/13 00:04:01;;;;;;;10.68;7.15;;;-1.20;99.90;;;;;;5054190;28;20055;-73
2022/02/13 00:06:26;;;;;;;13.10;7.65;;;-1.20;99.90;;;;;;5053113;28;20068;-71
2022/02/13 00:08:53;;;;;;;12.30;8.25;;;-1.20;99.90;;;;;;5053607;28;20112;-74
2022/02/13 00:11:19;;;;;;;15.00;8.23;;;-1.20;99.90;;;;;;5052480;28;20029;-73
2022/02/13 00:13:45;;;;;;;15.55;8.48;;;-1.30;99.90;;;;;;5053111;28;20021;-74
2022/02/13 00:16:11;;;;;;;14.32;8.05;;;-1.30;99.90;;;;;;5053713;28;20036;-74
2022/02/13 00:18:37;;;;;;;11.52;7.15;;;-1.20;99.90;;;;;;5052472;28;20445;-73
2022/02/13 00:21:02;;;;;;;16.63;8.30;;;-1.00;99.90;;;;;;5053604;28;20433;-74
2022/02/13 00:23:28;;;;;;;15.25;7.75;;;-1.00;99.90;;;;;;5052993;28;20029;-71
2022/02/13 00:25:54;;;;;;;14.85;7.75;;;-0.90;99.90;;;;;;5053519;28;20021;-74
2022/02/13 00:28:19;;;;;;;13.90;7.55;;;-0.90;99.90;;;;;;5053533;28;20036;-74
2022/02/13 00:30:46;;;;;;;13.00;8.20;;;-0.90;99.90;;;;;;5052541;28;20407;-73
2022/02/13 00:33:15;;;;;;;15.13;7.28;;;-1.00;99.90;;;;;;5051391;28;20151;-74
2022/02/13 00:35:41;;;;;;;11.60;6.85;;;-1.00;99.90;;;;;;5052732;28;20495;-74
2022/02/13 00:38:08;;;;;;;15.10;7.78;;;-1.00;99.90;;;;;;5052774;28;20033;-74
2022/02/13 00:40:34;;;;;;;14.20;7.88;;;-1.10;99.90;;;;;;5052216;28;20043;-74
2022/02/13 00:42:59;;;;;;;11.88;7.45;;;-1.10;99.90;;;;;;5053207;28;20041;-74
2022/02/13 00:45:26;;;;;;;12.27;7.47;;;-1.10;99.90;;;;;;5052975;28;20100;-75
2022/02/13 00:47:52;;;;;;;11.70;7.50;;;-1.20;99.90;;;;;;5052114;28;20489;-75
2022/02/13 00:50:17;;;;;;;13.10;7.47;;;-1.10;99.90;;;;;;5052775;28;20025;-74
2022/02/13 00:52:43;;;;;;;13.80;8.18;;;-1.20;99.90;;;;;;5052451;28;20052;-73
2022/02/13 00:55:09;;;;;;;12.23;6.95;;;-1.20;99.90;;;;;;5052873;28;20061;-75
2022/02/13 00:57:35;;;;;;;13.85;7.60;;;-1.30;99.90;;;;;;5052263;28;20064;-73
2022/02/13 01:00:00;;;;;;;12.70;7.32;;;-1.30;99.90;;;;;;5053448;28;20071;-74
2022/02/13 01:02:26;;;;;;;12.40;7.32;;;-1.40;99.90;;;;;;5053375;28;20024;-73
2022/02/13 01:04:52;;;;;;;15.32;8.93;;;-1.40;99.90;;;;;;5052018;28;20502;-73
2022/02/13 01:07:17;;;;;;;15.90;9.48;;;-1.50;99.90;;;;;;5051993;28;20033;-74
2022/02/13 01:09:43;;;;;;;12.27;8.02;;;-1.50;99.90;;;;;;5051967;28;20036;-74
2022/02/13 01:12:09;;;;;;;16.60;8.02;;;-1.50;99.90;;;;;;5052865;28;20033;-74
2022/02/13 01:14:35;;;;;;;14.98;7.72;;;-1.50;99.90;;;;;;5051931;28;20029;-73
2022/02/13 01:17:01;;;;;;;15.68;7.93;;;-1.40;99.90;;;;;;5052147;28;20040;-73
2022/02/13 01:19:29;;;;;;;11.35;7.70;;;-1.40;99.90;;;;;;5052205;28;20029;-75
2022/02/13 01:21:55;;;;;;;11.85;7.90;;;-1.40;99.90;;;;;;5052261;28;20485;-74
2022/02/13 01:24:20;;;;;;;15.25;7.90;;;-1.40;99.90;;;;;;5052578;28;20029;-74
2022/02/13 01:26:46;;;;;;;15.63;8.38;;;-1.40;99.90;;;;;;5051506;28;20087;-74
2022/02/13 01:29:11;;;;;;;16.20;7.93;;;-1.40;99.90;;;;;;5052090;28;20025;-75
2022/02/13 01:31:39;;;;;;;14.65;7.93;;;-1.40;99.90;;;;;;5051637;28;20029;-75
2022/02/13 01:34:05;;;;;;;14.90;8.65;;;-1.40;99.90;;;;;;5052144;28;20030;-73
2022/02/13 01:36:31;;;;;;;15.93;8.75;;;-1.40;99.90;;;;;;5050207;28;20552;-70
2022/02/13 01:38:56;;;;;;;16.02;8.35;;;-1.40;99.90;;;;;;5051210;28;20068;-74
2022/02/13 01:41:22;;;;;;;15.73;8.02;;;-1.40;99.90;;;;;;5051884;28;20047;-74
2022/02/13 01:43:48;;;;;;;16.10;8.80;;;-1.40;99.90;;;;;;5050741;28;20619;-74
2022/02/13 01:46:14;;;;;;;13.52;7.68;;;-1.30;99.90;;;;;;5051517;28;20116;-73
2022/02/13 01:48:39;;;;;;;16.25;7.70;;;-1.20;99.90;;;;;;5051864;28;20052;-74
2022/02/13 01:51:07;;;;;;;17.23;8.02;;;-0.90;99.90;;;;;;5052152;28;20079;-72
2022/02/13 01:53:32;;;;;;;17.13;8.25;;;-0.80;99.90;;;;;;5051571;28;20033;-70
2022/02/13 01:56:00;;;;;;;12.63;7.43;;;-0.60;99.90;;;;;;5051328;28;20036;-74
2022/02/13 01:58:26;;;;;;;17.15;7.43;;;-0.60;99.90;;;;;;5052347;28;20500;-74
2022/02/13 02:00:52;;;;;;;13.77;7.45;;;-0.70;99.90;;;;;;5051955;28;20650;-73
2022/02/13 02:03:18;;;;;;;12.75;7.20;;;-0.80;99.90;;;;;;5051317;28;20033;-74
2022/02/13 02:05:44;;;;;;;15.48;9.05;;;-0.70;99.90;;;;;;5051415;28;20032;-73
2022/02/13 02:08:09;;;;;;;16.05;10.05;;;-0.70;99.90;;;;;;5051992;28;20037;-75
2022/02/13 02:10:35;;;;;;;17.25;9.55;;;-0.70;99.90;;;;;;5051710;28;20029;-74
2022/02/13 02:13:01;;;;;;;20.50;10.50;;;-0.70;99.90;;;;;;5051742;28;20474;-75
2022/02/13 02:15:27;;;;;;;19.55;11.18;;;-0.90;99.90;;;;;;5052158;28;20033;-74
2022/02/13 02:17:52;;;;;;;18.83;10.68;;;-0.90;99.90;;;;;;5051248;28;20029;-74
2022/02/13 02:20:18;;;;;;;21.00;10.07;;;-1.00;99.90;;;;;;5050493;28;20032;-74
2022/02/13 02:23:03;;;;;;;18.67;11.43;;;-1.10;99.90;;;;;;5051499;28;20036;-75
2022/02/13 02:25:28;;;;;;;19.58;11.57;;;-1.30;99.90;;;;;;5051874;28;20036;-75
2022/02/13 02:27:54;;;;;;;14.45;9.45;;;-1.40;99.90;;;;;;5051017;28;20041;-75
2022/02/13 02:30:20;;;;;;;21.40;10.52;;;-1.50;99.90;;;;;;5051689;28;20029;-74
2022/02/13 02:32:45;;;;;;;19.80;10.38;;;-1.50;99.90;;;;;;5051285;28;20092;-74
2022/02/13 02:35:11;;;;;;;16.40;9.73;;;-1.60;99.90;;;;;;5051245;28;20052;-74
2022/02/13 02:37:37;;;;;;;18.67;9.77;;;-1.60;99.90;;;;;;5050994;28;20048;-73
2022/02/13 02:40:03;;;;;;;16.75;9.40;;;-1.60;99.90;;;;;;5051260;28;20112;-75
2022/02/13 02:42:29;;;;;;;17.65;9.85;;;-1.70;99.90;;;;;;5051875;28;20029;-74
2022/02/13 02:44:54;;;;;;;15.38;8.70;;;-1.70;99.90;;;;;;5050759;28;20458;-74
2022/02/13 02:47:20;;;;;;;19.33;9.50;;;-1.80;99.90;;;;;;5051665;28;20039;-74
2022/02/13 02:49:46;;;;;;;13.32;8.02;;;-1.80;99.90;;;;;;5050934;28;20075;-75
2022/02/13 02:52:11;;;;;;;13.50;8.50;;;-1.80;99.90;;;;;;5050409;28;20454;-75
2022/02/13 02:54:37;;;;;;;15.65;8.70;;;-1.90;99.90;;;;;;5050905;28;20036;-75
2022/02/13 02:57:03;;;;;;;21.00;10.70;;;-1.90;99.90;;;;;;5051550;28;20569;-75
2022/02/13 02:59:29;;;;;;;18.75;9.25;;;-1.80;99.90;;;;;;5051191;28;20029;-75
2022/02/13 03:01:54;;;;;;;19.27;10.50;;;-1.80;99.90;;;;;;5051019;28;20025;-75
2022/02/13 03:04:20;;;;;;;20.48;10.55;;;-1.80;99.90;;;;;;5051660;28;20025;-75
2022/02/13 03:06:46;;;;;;;18.23;10.82;;;-1.80;99.90;;;;;;5050392;28;20044;-74
2022/02/13 03:09:11;;;;;;;26.02;12.63;;;-2.00;99.90;;;;;;5051394;28;20041;-74
2022/02/13 03:11:37;;;;;;;20.83;12.38;;;-2.00;99.90;;;;;;5050537;28;20029;-74
2022/02/13 03:14:03;;;;;;;20.98;11.93;;;-2.00;99.90;;;;;;5051341;28;20517;-74
2022/02/13 03:16:29;;;;;;;21.52;12.85;;;-2.00;99.90;;;;;;5051224;28;20033;-75
2022/02/13 03:18:54;;;;;;;22.98;12.10;;;-2.10;99.90;;;;;;5050678;28;20053;-77
2022/02/13 03:21:20;;;;;;;18.83;11.02;;;-2.10;99.90;;;;;;5049876;28;20115;-75
2022/02/13 03:23:45;;;;;;;23.88;12.07;;;-2.10;99.90;;;;;;5050913;28;20383;-75
2022/02/13 03:26:11;;;;;;;21.13;11.65;;;-2.20;99.90;;;;;;5051166;28;20470;-75
2022/02/13 03:28:37;;;;;;;23.40;12.07;;;-2.20;99.90;;;;;;5050551;28;20037;-73
2022/02/13 03:31:02;;;;;;;20.75;12.15;;;-2.20;99.90;;;;;;5049805;28;20052;-74
2022/02/13 03:33:28;;;;;;;21.50;11.93;;;-2.20;99.90;;;;;;5051407;28;20028;-74
2022/02/13 03:35:53;;;;;;;17.80;10.70;;;-2.20;99.90;;;;;;5050279;28;20624;-74
2022/02/13 03:38:19;;;;;;;20.20;12.57;;;-2.30;99.90;;;;;;5051570;28;20377;-75
2022/02/13 03:40:45;;;;;;;19.42;11.07;;;-2.30;99.90;;;;;;5050520;28;20033;-75
2022/02/13 03:43:10;;;;;;;22.20;11.90;;;-2.30;99.90;;;;;;5050807;28;20032;-75
2022/02/13 03:45:36;;;;;;;24.38;12.20;;;-2.30;99.90;;;;;;5050019;28;20029;-70
2022/02/13 03:48:03;;;;;;;23.90;13.18;;;-2.40;99.90;;;;;;5051174;28;20033;-75
2022/02/13 03:50:29;;;;;;;23.10;12.25;;;-2.40;99.90;;;;;;5051268;28;20029;-76
2022/02/13 03:52:55;;;;;;;22.33;11.77;;;-2.40;99.90;;;;;;5050106;28;20555;-75
2022/02/13 03:55:21;;;;;;;21.30;11.65;;;-2.30;99.90;;;;;;5050611;28;20063;-77
2022/02/13 03:57:46;;;;;;;22.35;13.27;;;-2.40;99.90;;;;;;5050537;28;20109;-76
2022/02/13 04:00:13;;;;;;;26.35;12.88;;;-2.40;99.90;;;;;;5050848;28;20033;-77
2022/02/13 04:02:40;;;;;;;22.05;12.95;;;-2.30;99.90;;;;;;5050437;28;20025;-76
2022/02/13 04:05:07;;;;;;;20.98;11.70;;;-2.30;99.90;;;;;;5050921;28;20072;-77
2022/02/13 04:07:33;;;;;;;25.17;13.23;;;-2.30;99.90;;;;;;5053106;28;20102;-77
2022/02/13 04:09:59;;;;;;;20.30;12.30;;;-2.30;99.90;;;;;;5054146;28;20025;-76
2022/02/13 04:12:24;;;;;;;19.92;12.23;;;-2.30;99.90;;;;;;5054716;28;20351;-77
2022/02/13 04:14:51;;;;;;;23.25;12.60;;;-2.30;99.90;;;;;;5053885;28;20036;-77
2022/02/13 04:17:18;;;;;;;23.65;11.73;;;-2.30;99.90;;;;;;5054283;28;20462;-77
2022/02/13 04:19:43;;;;;;;23.17;12.65;;;-2.30;99.90;;;;;;5053045;28;20044;-77
2022/02/13 04:22:09;;;;;;;19.40;11.88;;;-2.30;99.90;;;;;;5053908;28;20025;-77
2022/02/13 04:24:35;;;;;;;22.73;12.98;;;-2.30;99.90;;;;;;5054204;28;20028;-72
2022/02/13 04:27:00;;;;;;;26.05;13.23;;;-2.20;99.90;;;;;;5053663;28;20064;-76
2022/02/13 04:29:26;;;;;;;23.58;13.35;;;-2.30;99.90;;;;;;5054051;28;20055;-77
2022/02/13 04:31:51;;;;;;;24.60;13.55;;;-2.30;99.90;;;;;;5053218;28;20515;-77
2022/02/13 04:34:17;;;;;;;23.02;12.65;;;-2.30;99.90;;;;;;5054209;28;20033;-77
2022/02/13 04:36:43;;;;;;;24.70;12.73;;;-2.30;99.90;;;;;;5053284;28;20167;-78
2022/02/13 04:39:08;;;;;;;24.33;12.57;;;-2.30;99.90;;;;;;5053559;28;20082;-77
2022/02/13 04:41:34;;;;;;;23.98;12.27;;;-2.30;99.90;;;;;;5053985;28;20034;-74
2022/02/13 04:44:00;;;;;;;22.05;12.32;;;-2.40;99.90;;;;;;5053111;28;20472;-74
2022/02/13 04:46:25;;;;;;;21.65;12.95;;;-2.40;99.90;;;;;;5053938;28;20416;-75
2022/02/13 04:48:51;;;;;;;21.50;12.05;;;-2.40;99.90;;;;;;5052882;28;20470;-75
2022/02/13 04:51:16;;;;;;;20.30;11.15;;;-2.40;99.90;;;;;;5053622;28;20485;-75
2022/02/13 04:53:42;;;;;;;21.88;11.15;;;-2.40;99.90;;;;;;5053022;28;20033;-75
2022/02/13 04:56:08;;;;;;;21.52;11.90;;;-2.40;99.90;;;;;;5053160;28;20033;-75
2022/02/13 04:58:35;;;;;;;20.60;12.07;;;-2.40;99.90;;;;;;5053637;28;20072;-72
2022/02/13 05:01:01;;;;;;;20.25;12.35;;;-2.50;99.90;;;;;;5052705;28;20029;-76
2022/02/13 05:03:27;;;;;;;23.52;11.57;;;-2.50;99.90;;;;;;5053417;28;20033;-76
2022/02/13 05:05:54;;;;;;;21.60;12.70;;;-2.50;99.90;;;;;;5052861;28;20029;-75
2022/02/13 05:08:21;;;;;;;19.80;11.68;;;-2.50;99.90;;;;;;5053300;28;20112;-75
2022/02/13 05:10:46;;;;;;;20.92;12.43;;;-2.60;99.90;;;;;;5052765;28;20033;-76
2022/02/13 05:13:12;;;;;;;24.92;11.60;;;-2.60;99.90;;;;;;5053190;28;20091;-76
2022/02/13 05:15:38;;;;;;;24.85;12.35;;;-2.60;99.90;;;;;;5053001;28;20024;-69
2022/02/13 05:18:04;;;;;;;26.90;12.82;;;-2.60;99.90;;;;;;5053104;28;20033;-76
2022/02/13 05:20:30;;;;;;;20.92;12.35;;;-2.60;99.90;;;;;;5052967;28;20386;-75
2022/02/13 05:22:56;;;;;;;25.08;12.85;;;-2.60;99.90;;;;;;5052422;28;20849;-76
2022/02/13 05:25:23;;;;;;;23.27;12.98;;;-2.60;99.90;;;;;;5052896;28;20028;-75
2022/02/13 05:27:48;;;;;;;24.20;14.13;;;-2.60;99.90;;;;;;5052272;28;20036;-75
2022/02/13 05:30:14;;;;;;;24.15;12.52;;;-2.60;99.90;;;;;;5053222;28;20382;-75
2022/02/13 05:32:40;;;;;;;25.30;13.32;;;-2.60;99.90;;;;;;5052074;28;20052;-70
2022/02/13 05:35:06;;;;;;;21.52;13.40;;;-2.60;99.90;;;;;;5053106;28;20029;-76
2022/02/13 05:37:31;;;;;;;23.13;13.80;;;-2.60;99.90;;;;;;5052733;28;20507;-76
2022/02/13 05:39:57;;;;;;;22.05;13.25;;;-2.70;99.90;;;;;;5052046;28;20029;-76
2022/02/13 05:42:24;;;;;;;23.27;12.98;;;-2.70;99.90;;;;;;5052282;28;20036;-75
2022/02/13 05:44:53;;;;;;;23.08;12.98;;;-2.70;99.90;;;;;;5052066;28;20029;-75
2022/02/13 05:47:19;;;;;;;26.23;12.75;;;-2.70;99.90;;;;;;5052586;28;20472;-75
2022/02/13 05:49:45;;;;;;;26.88;13.90;;;-2.70;99.90;;;;;;5051630;28;20033;-76
2022/02/13 05:52:11;;;;;;;22.48;13.10;;;-2.70;99.90;;;;;;5053003;28;20104;-76
2022/02/13 05:54:36;;;;;;;20.92;12.63;;;-2.70;99.90;;;;;;5051165;28;20032;-73
2022/02/13 05:57:02;;;;;;;21.60;11.82;;;-2.70;99.90;;;;;;5051747;28;20060;-76
2022/02/13 05:59:28;;;;;;;20.30;12.57;;;-2.70;99.90;;;;;;5052694;28;20029;-76
2022/02/13 06:01:55;;;;;;;25.90;12.93;;;-2.70;99.90;;;;;;5051694;28;20528;-76
2022/02/13 06:04:22;;;;;;;21.85;11.90;;;-2.60;99.90;;;;;;5052334;28;20057;-75
2022/02/13 06:06:49;;;;;;;21.88;12.32;;;-2.60;99.90;;;;;;5051246;28;20430;-78
2022/02/13 06:09:15;;;;;;;20.13;12.38;;;-2.60;99.90;;;;;;5052224;28;20095;-82
2022/02/13 06:11:41;;;;;;;23.33;12.70;;;-2.60;99.90;;;;;;5051862;28;20021;-71
2022/02/13 06:14:07;;;;;;;22.92;12.75;;;-2.50;99.90;;;;;;5052604;28;20021;-77
2022/02/13 06:16:33;;;;;;;24.48;12.85;;;-2.40;99.90;;;;;;5051813;28;20524;-76
2022/02/13 06:18:59;;;;;;;25.35;13.68;;;-2.40;99.90;;;;;;5051155;28;20017;-81
2022/02/13 06:21:25;;;;;;;21.63;13.30;;;-2.40;99.90;;;;;;5032732;28;20041;-81
2022/02/13 06:23:51;;;;;;;21.10;12.43;;;-2.40;99.90;;;;;;5049580;28;20390;-84
2022/02/13 06:26:17;;;;;;;24.83;12.25;;;-2.40;99.90;;;;;;5052234;28;20458;-80
2022/02/13 06:28:43;;;;;;;24.42;12.30;;;-2.30;99.90;;;;;;5051009;28;20107;-74
2022/02/13 06:31:09;;;;;;;23.40;12.50;;;-2.30;99.90;;;;;;5051357;28;20497;-83
2022/02/13 06:33:34;;;;;;;20.08;12.30;;;-2.30;99.90;;;;;;5051753;28;20033;-73
2022/02/13 06:36:00;;;;;;;20.60;11.68;;;-2.30;99.90;;;;;;5051220;28;20025;-70
2022/02/13 06:38:26;;;;;;;28.17;12.25;;;-2.30;99.90;;;;;;5051662;28;20462;-72
2022/02/13 06:40:52;;;;;;;22.65;11.50;;;-2.20;99.90;;;;;;5050474;28;20106;-74
2022/02/13 06:43:18;;;;;;;21.15;11.10;;;-2.30;99.90;;;;;;5051369;28;20021;-75
2022/02/13 06:45:43;;;;;;;23.23;11.65;;;-2.30;99.90;;;;;;5050910;28;20025;-73
2022/02/13 06:48:09;;;;;;;20.05;11.90;;;-2.30;99.90;;;;;;5052108;28;20033;-74
2022/02/13 06:50:35;;;;;;;24.77;11.38;;;-2.20;99.90;;;;;;5051976;28;20033;-74
2022/02/13 06:53:02;;;;;;;24.02;12.00;;;-2.30;99.90;;;;;;5051420;28;20021;-73
2022/02/13 06:55:28;;;;;;;25.95;13.48;;;-2.30;99.90;;;;;;5052217;28;20033;-81
2022/02/13 06:57:54;;;;;;;22.60;11.98;;;-2.30;99.90;;;;;;5051545;28;20140;-78
2022/02/13 07:00:21;;;;;;;18.92;12.02;;;-2.20;99.90;;;;;;5051748;28;20055;-76
2022/02/13 07:02:47;;;;;;;22.48;11.63;;;-2.20;99.90;;;;;;5050405;28;20032;-71
2022/02/13 07:05:13;;;;;;;20.38;12.35;;;-2.10;99.90;;;;;;5051926;28;20036;-73
2022/02/13 07:07:39;;;;;;;19.70;11.20;;;-2.00;99.90;;;;;;5050955;28;20028;-71
2022/02/13 07:10:10;;;;;;;18.50;11.82;;;-1.90;99.90;;;;;;5050422;28;20078;-74
2022/02/13 07:12:36;;;;;;;19.25;11.50;;;-1.90;99.90;;;;;;5051379;28;20025;-73
2022/02/13 07:15:05;;;;;;;20.70;12.38;;;-1.80;99.90;;;;;;5050920;28;20032;-73
2022/02/13 07:17:31;;;;;;;19.05;11.60;;;-1.70;99.90;;;;;;5050848;28;20482;-72
2022/02/13 07:19:56;;;;;;;21.88;11.93;;;-1.60;99.90;;;;;;5049378;28;20032;-72
2022/02/13 07:22:24;;;;;;;21.02;11.02;;;-1.50;99.90;;;;;;5051494;28;20108;-74
2022/02/13 07:24:50;;;;;;;17.65;11.07;;;-1.50;99.90;;;;;;5049087;28;20075;-74
2022/02/13 07:27:16;;;;;;;21.75;12.02;;;-1.40;99.90;;;;;;5050419;28;20036;-73
2022/02/13 07:29:41;;;;;;;21.30;11.10;;;-1.40;99.90;;;;;;5049216;28;20037;-71
2022/02/13 07:32:08;;;;;;;22.20;12.45;;;-1.40;99.90;;;;;;5050637;28;20025;-75
2022/02/13 07:34:35;;;;;;;17.63;10.25;;;-1.50;99.90;;;;;;5051288;28;20087;-73
2022/02/13 07:37:03;;;;;;;18.83;10.27;;;-1.50;99.90;;;;;;5046756;28;20032;-71
2022/02/13 07:39:30;;;;;;;18.83;11.55;;;-1.50;99.90;;;;;;5045451;28;20037;-75
2022/02/13 07:41:57;;;;;;;17.08;9.85;;;-1.40;99.90;;;;;;5051299;28;20028;-73
2022/02/13 07:44:24;;;;;;;20.08;10.73;;;-1.40;99.90;;;;;;5052312;28;20033;-77
2022/02/13 07:46:50;;;;;;;22.17;12.20;;;-1.40;99.90;;;;;;5054405;28;20371;-75
2022/02/13 07:49:16;;;;;;;19.70;11.38;;;-1.30;99.90;;;;;;5054576;28;20079;-76
2022/02/13 07:51:42;;;;;;;18.55;11.35;;;-1.20;99.90;;;;;;5051824;28;20124;-71
2022/02/13 07:54:09;;;;;;;26.25;11.32;;;-1.00;99.90;;;;;;5051918;28;20097;-79
2022/02/13 07:56:35;;;;;;;23.98;13.05;;;-0.90;99.90;;;;;;5051805;28;20052;-75
2022/02/13 07:59:00;;;;;;;22.25;12.00;;;-0.90;99.90;;;;;;5051331;28;20386;-82
2022/02/13 08:01:26;;;;;;;19.42;11.13;;;-0.70;99.90;;;;;;5051651;28;20029;-77
2022/02/13 08:03:53;;;;;;;19.40;11.32;;;-0.60;99.90;;;;;;5051269;28;20037;-77
2022/02/13 08:06:19;;;;;;;19.60;11.50;;;-0.40;99.90;;;;;;5051720;28;20112;-78
2022/02/13 08:08:52;;;;;;;22.80;11.15;;;-0.20;99.90;;;;;;5048785;28;20125;-73
2022/02/13 08:11:18;;;;;;;20.95;11.65;;;-0.10;99.90;;;;;;5052341;28;20040;-75
2022/02/13 08:13:45;;;;;;;21.35;10.63;;;0.00;99.90;;;;;;5058817;28;20025;-73
2022/02/13 08:16:10;;;;;;;21.58;11.00;;;0.20;99.90;;;;;;5053307;28;20032;-81
2022/02/13 08:18:39;;;;;;;19.05;10.80;;;0.30;99.90;;;;;;5052629;28;20036;-76
2022/02/13 08:21:05;;;;;;;22.77;11.30;;;0.40;99.90;;;;;;5044985;28;20033;-80
2022/02/13 08:23:31;;;;;;;16.92;10.45;;;0.50;99.90;;;;;;5051904;28;20025;-77
2022/02/13 08:25:57;;;;;;;22.58;10.52;;;0.70;99.90;;;;;;5051117;28;20120;-79
2022/02/13 08:28:23;;;;;;;22.70;11.38;;;0.90;99.90;;;;;;5051579;28;20478;-81
2022/02/13 08:30:49;;;;;;;15.90;9.95;;;1.00;99.90;;;;;;5050963;28;20029;-79
2022/02/13 08:33:14;;;;;;;17.17;9.90;;;1.20;99.90;;;;;;5051353;28;20031;-78
2022/02/13 08:35:40;;;;;;;15.57;10.23;;;1.30;99.90;;;;;;5051493;28;20481;-75
2022/02/13 08:38:06;;;;;;;17.73;10.73;;;1.50;99.90;;;;;;5048190;28;20060;-78
2022/02/13 08:40:33;;;;;;;19.55;10.57;;;1.60;99.90;;;;;;5051187;28;20106;-80
2022/02/13 08:42:59;;;;;;;16.80;10.02;;;1.90;99.90;;;;;;5050559;28;20031;-79
2022/02/13 08:45:25;;;;;;;15.90;10.15;;;2.00;99.90;;;;;;5051273;28;20028;-78
2022/02/13 08:47:51;;;;;;;16.83;9.68;;;2.10;99.90;;;;;;5050715;28;20492;-79
2022/02/13 08:50:17;;;;;;;20.23;10.80;;;2.10;99.90;;;;;;5050855;28;20025;-80
2022/02/13 08:52:43;;;;;;;15.20;9.30;;;2.20;99.90;;;;;;5050492;28;20083;-81
2022/02/13 08:55:09;;;;;;;19.85;9.48;;;2.30;99.90;;;;;;5051548;28;20107;-81
2022/02/13 08:57:35;;;;;;;16.48;9.68;;;2.40;99.90;;;;;;5049808;28;20060;-82
2022/02/13 09:00:01;;;;;;;17.08;9.65;;;2.50;99.90;;;;;;5049957;28;20029;-82
2022/02/13 09:02:26;;;;;;;17.58;10.05;;;2.70;99.90;;;;;;5051163;28;20039;-87
2022/02/13 09:04:52;;;;;;;15.63;9.32;;;2.80;99.90;;;;;;5050523;28;20033;-80
2022/02/13 09:07:17;;;;;;;15.57;10.02;;;2.90;99.90;;;;;;5050315;28;20033;-73
2022/02/13 09:09:45;;;;;;;20.17;10.30;;;3.00;99.90;;;;;;5049545;28;20033;-77
2022/02/13 09:12:10;;;;;;;20.17;9.15;;;3.10;99.90;;;;;;5050166;28;20025;-75
2022/02/13 09:14:36;;;;;;;15.25;9.93;;;3.30;99.90;;;;;;5053220;28;20432;-74
2022/02/13 09:17:03;;;;;;;14.20;9.15;;;3.40;99.90;;;;;;5052610;28;20037;-71
2022/02/13 09:19:29;;;;;;;17.30;9.75;;;3.50;99.90;;;;;;5052806;28;20025;-78
2022/02/13 09:21:55;;;;;;;16.35;9.48;;;3.70;99.90;;;;;;5051238;28;20036;-76
2022/02/13 09:24:22;;;;;;;17.85;9.40;;;3.80;99.90;;;;;;5046047;28;20124;-74
2022/02/13 09:26:48;;;;;;;17.58;10.35;;;3.90;99.90;;;;;;5054160;28;20028;-76
2022/02/13 09:29:14;;;;;;;15.57;10.25;;;4.00;99.90;;;;;;5054195;28;20040;-73
2022/02/13 09:31:40;;;;;;;15.82;9.00;;;4.10;99.90;;;;;;5052752;28;20029;-78
2022/02/13 09:34:06;;;;;;;15.75;9.02;;;4.20;99.90;;;;;;5052390;28;20210;-78
2022/02/13 09:36:32;;;;;;;12.85;8.52;;;4.30;99.90;;;;;;5052926;28;20029;-90
2022/02/13 09:38:57;;;;;;;14.00;8.80;;;4.50;99.90;;;;;;5052425;28;20094;-78
2022/02/13 09:41:23;;;;;;;15.13;7.78;;;4.80;99.90;;;;;;5052522;28;20488;-83
2022/02/13 09:43:50;;;;;;;13.90;7.70;;;5.00;99.90;;;;;;5052211;28;20474;-82
2022/02/13 09:46:16;;;;;;;12.10;6.65;;;5.10;99.90;;;;;;5051849;28;20113;-77
2022/02/13 09:48:44;;;;;;;17.73;6.72;;;;;;;;;;5052211;28;20040;-77
2022/02/13 09:51:11;;;;;;;12.00;6.18;;;5.70;99.90;;;;;;5051024;28;20027;-77
2022/02/13 09:53:37;;;;;;;11.73;6.13;;;6.00;99.90;;;;;;5052124;28;20449;-73
2022/02/13 09:56:04;;;;;;;12.40;5.80;;;6.20;99.90;;;;;;5050164;28;20061;-78
2022/02/13 09:58:30;;;;;;;14.40;5.63;;;6.50;99.90;;;;;;5052820;28;20059;-82
2022/02/13 10:01:04;;;;;;;10.60;5.30;;;6.80;99.90;;;;;;5051448;28;20032;-76
2022/02/13 10:03:31;;;;;;;9.98;5.40;;;7.00;99.90;;;;;;5050922;28;20033;-74
2022/02/13 10:06:19;;;;;;;9.48;5.03;;;7.20;99.90;;;;;;5050770;28;20025;-72
2022/02/13 10:08:47;;;;;;;12.15;5.13;;;;;;;;;;5052348;28;20041;-74
2022/02/13 10:11:12;;;;;;;9.65;5.00;;;7.70;99.80;;;;;;5051910;28;20071;-73
2022/02/13 10:14:03;;;;;;;20.08;6.22;;;7.80;99.90;;;;;;5052430;28;20446;-73
2022/02/13 10:16:40;;;;;;;14.48;5.63;;;7.90;99.20;;;;;;5052335;28;20029;-73
2022/02/13 10:19:23;;;;;;;9.10;5.22;;;8.20;98.30;;;;;;5051285;28;20825;-74
2022/02/13 10:21:50;;;;;;;10.95;5.53;;;8.40;97.60;;;;;;5050342;28;20021;-78
2022/02/13 10:24:23;;;;;;;10.35;5.05;;;8.50;96.80;;;;;;5049571;28;20052;-72
2022/02/13 10:27:05;;;;;;;13.57;6.93;;;8.70;95.50;;;;;;5051549;28;20029;-78
2022/02/13 10:29:33;;;;;;;11.95;5.85;;;8.80;94.20;;;;;;5053463;28;20029;-74
2022/02/13 10:32:18;;;;;;;14.13;5.90;;;8.90;93.40;;;;;;5056650;28;20025;-72
2022/02/13 10:35:06;;;;;;;13.95;6.18;;;9.00;92.20;;;;;;5052735;28;20025;-79
2022/02/13 10:37:49;;;;;;;11.95;5.50;;;9.10;91.90;;;;;;5051524;28;20112;-74
2022/02/13 10:40:19;;;;;;;11.80;5.05;;;9.10;90.70;;;;;;5051642;28;20041;-82
2022/02/13 10:42:45;;;;;;;11.00;5.28;;;9.10;90.90;;;;;;5050513;28;20025;-85
2022/02/13 10:45:18;;;;;;;15.05;5.97;;;9.10;90.70;;;;;;5050729;28;20493;-77
2022/02/13 10:47:45;;;;;;;10.25;5.45;;;9.20;90.60;;;;;;5051605;28;20043;-78
2022/02/13 10:50:17;;;;;;;11.13;5.63;;;9.20;90.50;;;;;;5050668;28;20243;-77
2022/02/13 10:52:48;;;;;;;13.30;5.90;;;9.30;91.00;;;;;;5050468;28;20029;-78
2022/02/13 10:55:15;;;;;;;10.50;5.43;;;9.30;90.40;;;;;;5049607;28;20025;-82
2022/02/13 10:57:41;;;;;;;10.23;5.78;;;9.30;90.40;;;;;;5049601;28;20077;-80
2022/02/13 11:00:10;;;;;;;17.67;6.20;;;9.40;90.00;;;;;;5050464;28;20063;-74
2022/02/13 11:02:39;;;;;;;14.02;5.57;;;9.50;88.70;;;;;;5050797;28;20468;-78
2022/02/13 11:05:06;;;;;;;11.65;5.40;;;9.60;87.80;;;;;;5050726;28;20424;-78
2022/02/13 11:07:33;;;;;;;9.40;5.50;;;9.70;87.60;;;;;;5051424;28;20390;-76
2022/02/13 11:09:59;;;;;;;13.43;5.60;;;9.70;87.60;;;;;;5050170;28;20485;-77
2022/02/13 11:12:25;;;;;;;15.60;6.00;;;9.80;87.00;;;;;;5050294;28;20075;-82
2022/02/13 11:14:56;;;;;;;12.40;5.45;;;9.90;85.40;;;;;;5050992;28;20474;-73
2022/02/13 11:17:33;;;;;;;19.20;5.55;;;10.00;83.60;;;;;;5054803;28;20033;-77
2022/02/13 11:20:01;;;;;;;11.00;5.18;;;10.10;83.90;;;;;;5054799;28;20029;-72
2022/02/13 11:22:36;;;;;;;13.07;5.45;;;10.10;83.20;;;;;;5055038;28;20021;-74
2022/02/13 11:25:04;;;;;;;10.40;4.95;;;10.20;81.60;;;;;;5054322;28;20082;-75
2022/02/13 11:27:57;;;;;;;10.80;5.18;;;10.20;81.20;;;;;;5054469;28;20029;-78
2022/02/13 11:30:49;;;;;;;9.50;6.03;;;10.30;81.50;;;;;;5055008;28;20048;-84
2022/02/13 11:33:30;;;;;;;11.55;5.05;;;10.40;80.40;;;;;;5053401;28;20025;-76
2022/02/13 11:36:04;;;;;;;12.52;5.88;;;10.40;80.10;;;;;;5048286;28;20440;-86
2022/02/13 11:38:48;;;;;;;12.88;5.70;;;10.40;80.20;;;;;;5054582;28;20033;-75
2022/02/13 11:41:15;;;;;;;11.70;5.72;;;10.50;79.90;;;;;;5034778;28;20041;-81
2022/02/13 11:43:44;;;;;;;12.48;5.75;;;10.60;78.50;;;;;;5046961;28;20063;-83
2022/02/13 11:46:14;;;;;;;13.02;5.35;;;10.70;79.10;;;;;;5054213;28;20122;-76
2022/02/13 11:48:45;;;;;;;11.82;6.50;;;10.70;77.20;;;;;;5054903;28;20489;-76
2022/02/13 11:51:13;;;;;;;12.20;5.35;;;10.80;77.10;;;;;;5054151;28;20039;-74
2022/02/13 11:53:43;;;;;;;16.55;8.45;;;10.90;76.80;;;;;;5054664;28;20393;-75
2022/02/13 11:56:23;;;;;;;14.70;5.82;;;10.90;79.80;;;;;;5053613;28;20025;-78
2022/02/13 11:58:50;;;;;;;16.67;5.78;;;11.00;77.90;;;;;;5053999;28;20115;-71
2022/02/13 12:01:37;;;;;;;8.63;4.28;;;11.00;76.10;;;;;;5054088;28;20377;-87
2022/02/13 12:04:05;;;;;;;10.48;4.22;;;11.10;73.10;;;;;;5053374;28;20450;-75
2022/02/13 12:06:32;;;;;;;10.18;3.35;;;11.30;66.10;;;;;;5054581;28;20111;-79
2022/02/13 12:09:05;;;;;;;8.98;3.70;;;11.40;65.70;;;;;;5054000;28;20056;-75
2022/02/13 12:11:40;;;;;;;15.93;3.97;;;11.40;65.70;;;;;;5054637;28;20102;-75
2022/02/13 12:14:12;;;;;;;8.30;3.80;;;11.50;64.50;;;;;;5053721;28;20100;-78
2022/02/13 12:16:38;;;;;;;7.20;3.63;;;11.50;64.10;;;;;;5054470;28;20550;-83
2022/02/13 12:19:04;;;;;;;8.35;3.88;;;11.50;64.50;;;;;;5053545;28;20104;-77
2022/02/13 12:21:29;;;;;;;7.40;3.83;;;11.60;63.20;;;;;;5054436;28;20021;-78
2022/02/13 12:24:05;;;;;;;6.60;3.22;;;11.70;62.40;;;;;;5053715;28;20066;-74
2022/02/13 12:26:31;;;;;;;10.40;3.67;;;11.70;61.20;;;;;;5054040;28;20092;-78
2022/02/13 12:29:00;;;;;;;9.93;3.40;;;11.70;60.70;;;;;;5052013;28;20037;-77
2022/02/13 12:31:26;;;;;;;6.70;4.07;;;11.60;61.30;;;;;;5054421;28;20021;-78
2022/02/13 12:33:54;;;;;;;7.68;3.35;;;11.70;60.60;;;;;;5053093;28;20321;-70
2022/02/13 12:36:24;;;;;;;8.43;3.35;;;11.70;60.60;;;;;;5053510;28;20378;-76